Time;durP1;ratioP1;P1;durP2;ratioP2;P2;SDS_P1;SDS_P2;PMS_P1;PMS_P2;Temp;Humidity;BMP_temperature;BMP_pressure;BME280_temperature;BME280_humidity;BME280_pressure;Samples;Min_cycle;Max_cycle;Signal;HPM_P1;HPM_P2
2022/05/08 00:01:52;;;;;;;59.13;36.15;;;13.20;99.90;;;;;;5094694;28;20505;-75
2022/05/08 00:04:20;;;;;;;99.10;61.30;;;13.20;99.90;;;;;;5095378;28;20036;-76
2022/05/08 00:06:47;;;;;;;66.82;39.35;;;13.20;99.90;;;;;;5095305;28;20042;-76
2022/05/08 00:09:16;;;;;;;61.03;36.53;;;13.20;99.90;;;;;;5094333;28;20049;-76
2022/05/08 00:11:43;;;;;;;57.15;34.03;;;13.20;99.90;;;;;;5095346;28;20044;-75
2022/05/08 00:14:11;;;;;;;51.85;33.75;;;13.10;99.90;;;;;;5095178;28;20044;-76
2022/05/08 00:16:38;;;;;;;52.80;33.90;;;13.10;99.90;;;;;;5095121;28;20042;-76
2022/05/08 00:19:05;;;;;;;58.00;36.53;;;13.10;99.90;;;;;;5094795;28;20517;-75
2022/05/08 00:21:33;;;;;;;57.97;34.42;;;13.20;99.90;;;;;;5095434;28;20407;-77
2022/05/08 00:24:00;;;;;;;58.65;33.97;;;13.10;99.90;;;;;;5106845;28;20069;-76
2022/05/08 00:26:29;;;;;;;64.68;33.25;;;13.00;99.90;;;;;;5099935;28;20102;-75
2022/05/08 00:28:57;;;;;;;58.28;32.83;;;13.00;99.90;;;;;;5096779;28;20048;-75
2022/05/08 00:31:25;;;;;;;54.63;32.30;;;13.00;99.90;;;;;;5095548;28;20048;-76
2022/05/08 00:33:53;;;;;;;50.30;31.55;;;13.00;99.90;;;;;;5093134;28;20406;-76
2022/05/08 00:36:21;;;;;;;52.67;30.58;;;13.00;99.90;;;;;;5095749;28;20048;-76
2022/05/08 00:38:48;;;;;;;59.47;33.67;;;13.10;99.90;;;;;;5094913;28;20036;-76
2022/05/08 00:41:15;;;;;;;58.17;33.58;;;13.10;99.90;;;;;;5094938;28;20044;-76
2022/05/08 00:43:44;;;;;;;58.67;34.95;;;13.10;99.90;;;;;;5093391;28;20089;-75
2022/05/08 00:46:13;;;;;;;65.13;36.22;;;13.10;99.90;;;;;;5094107;28;20055;-75
2022/05/08 00:48:45;;;;;;;53.20;32.60;;;13.20;99.90;;;;;;5093494;28;20044;-76
2022/05/08 00:51:15;;;;;;;57.53;32.75;;;13.10;99.90;;;;;;5093581;28;20048;-76
2022/05/08 00:53:46;;;;;;;50.78;30.75;;;13.20;99.90;;;;;;5095060;28;20448;-76
2022/05/08 00:56:15;;;;;;;48.80;27.98;;;13.20;99.90;;;;;;5097488;28;20040;-76
2022/05/08 00:58:47;;;;;;;49.47;28.25;;;13.20;99.90;;;;;;5111717;28;20483;-74
2022/05/08 01:01:16;;;;;;;49.08;27.30;;;13.10;99.90;;;;;;5104941;28;20453;-75
2022/05/08 01:03:43;;;;;;;45.10;28.67;;;13.10;99.90;;;;;;5097853;28;20036;-75
2022/05/08 01:06:12;;;;;;;48.58;29.08;;;13.10;99.90;;;;;;5094143;28;20048;-75
2022/05/08 01:08:41;;;;;;;38.65;24.30;;;13.10;99.90;;;;;;5095138;28;20051;-77
2022/05/08 01:11:10;;;;;;;42.28;26.13;;;13.10;99.90;;;;;;5094565;28;20566;-75
2022/05/08 01:13:38;;;;;;;44.53;27.08;;;13.00;99.90;;;;;;5094636;28;20054;-76
2022/05/08 01:16:11;;;;;;;40.58;24.92;;;13.00;99.90;;;;;;5093537;28;20048;-76
2022/05/08 01:18:38;;;;;;;32.17;21.08;;;13.00;99.90;;;;;;5110357;28;20047;-76
2022/05/08 01:21:09;;;;;;;30.05;19.17;;;12.90;99.90;;;;;;5093151;28;20055;-75
2022/05/08 01:23:38;;;;;;;33.90;21.10;;;12.90;99.90;;;;;;5094093;28;20047;-77
2022/05/08 01:26:06;;;;;;;35.47;21.88;;;12.90;99.90;;;;;;5093098;28;20414;-76
2022/05/08 01:28:34;;;;;;;34.35;22.17;;;12.80;99.90;;;;;;5094081;28;20055;-75
2022/05/08 01:31:01;;;;;;;36.67;23.13;;;12.80;99.90;;;;;;5092549;28;20490;-74
2022/05/08 01:33:29;;;;;;;40.63;23.35;;;12.80;99.90;;;;;;5094382;28;20407;-76
2022/05/08 01:35:56;;;;;;;38.25;23.90;;;12.70;99.90;;;;;;5094969;28;20058;-76
2022/05/08 01:38:24;;;;;;;41.25;23.23;;;12.70;99.90;;;;;;5094406;28;20044;-76
2022/05/08 01:40:55;;;;;;;42.13;23.00;;;12.70;99.90;;;;;;5093419;28;20070;-74
2022/05/08 01:43:23;;;;;;;39.47;22.65;;;12.70;99.90;;;;;;5094631;28;20040;-75
2022/05/08 01:45:54;;;;;;;40.58;22.23;;;12.70;99.90;;;;;;5095105;28;20089;-76
2022/05/08 01:48:23;;;;;;;32.83;20.95;;;12.60;99.90;;;;;;5093160;28;20491;-75
2022/05/08 01:50:51;;;;;;;40.10;22.52;;;12.60;99.90;;;;;;5093623;28;20060;-75
2022/05/08 01:53:20;;;;;;;46.13;28.02;;;12.60;99.90;;;;;;5093013;28;20048;-75
2022/05/08 01:55:49;;;;;;;47.85;24.35;;;12.60;99.90;;;;;;5093211;28;20101;-76
2022/05/08 01:58:18;;;;;;;47.30;24.58;;;12.50;99.90;;;;;;5092572;28;20143;-76
2022/05/08 02:00:48;;;;;;;96.13;23.48;;;12.50;99.90;;;;;;5092300;28;20055;-76
2022/05/08 02:03:16;;;;;;;62.00;23.30;;;12.50;99.90;;;;;;5092388;28;20422;-75
2022/05/08 02:05:44;;;;;;;55.72;23.73;;;12.40;99.90;;;;;;5094040;28;20154;-75
2022/05/08 02:08:12;;;;;;;78.05;21.85;;;12.40;99.90;;;;;;5093013;28;20044;-76
2022/05/08 02:10:43;;;;;;;45.70;20.95;;;12.30;99.90;;;;;;5094843;28;20078;-75
2022/05/08 02:13:11;;;;;;;80.38;22.60;;;12.30;99.90;;;;;;5094766;28;20044;-76
2022/05/08 02:15:40;;;;;;;33.05;20.48;;;12.20;99.90;;;;;;5094532;28;20040;-76
2022/05/08 02:18:13;;;;;;;50.22;22.42;;;12.20;99.90;;;;;;5109281;28;20070;-76
2022/05/08 02:20:41;;;;;;;40.45;22.35;;;12.20;99.90;;;;;;5098314;28;20050;-75
2022/05/08 02:23:09;;;;;;;43.25;20.02;;;12.20;99.90;;;;;;5094085;28;20047;-76
2022/05/08 02:25:36;;;;;;;42.65;20.83;;;12.10;99.90;;;;;;5097078;28;20434;-76
2022/05/08 02:28:05;;;;;;;55.30;21.38;;;12.20;99.90;;;;;;5087984;28;20573;-76
2022/05/08 02:30:32;;;;;;;40.45;22.38;;;12.10;99.90;;;;;;5093137;28;20040;-75
2022/05/08 02:33:02;;;;;;;37.38;21.98;;;12.10;99.90;;;;;;5097363;28;20036;-75
2022/05/08 02:35:29;;;;;;;63.97;22.27;;;12.10;99.90;;;;;;5096071;28;20040;-76
2022/05/08 02:37:57;;;;;;;60.50;21.30;;;12.20;99.90;;;;;;5097264;28;20419;-76
2022/05/08 02:40:25;;;;;;;39.72;21.30;;;12.20;99.90;;;;;;5096970;28;20050;-76
2022/05/08 02:42:54;;;;;;;32.25;19.33;;;12.10;99.90;;;;;;5097149;28;20040;-75
2022/05/08 02:45:23;;;;;;;32.90;15.00;;;12.10;99.90;;;;;;5097013;28;20051;-76
2022/05/08 02:47:50;;;;;;;23.38;14.88;;;12.10;99.90;;;;;;5097347;28;20066;-76
2022/05/08 02:50:20;;;;;;;22.50;15.63;;;11.90;99.90;;;;;;5097401;28;20040;-76
2022/05/08 02:52:48;;;;;;;23.85;14.23;;;12.00;99.90;;;;;;5096781;28;20560;-75
2022/05/08 03:00:47;;;;;;;17.65;13.30;;;12.00;99.90;;;;;;5096967;28;20032;-76
2022/05/08 03:03:15;;;;;;;20.08;12.65;;;11.90;99.90;;;;;;5096306;28;20036;-75
2022/05/08 03:05:47;;;;;;;20.40;13.18;;;11.90;99.90;;;;;;5095727;28;20040;-75
2022/05/08 03:08:15;;;;;;;17.25;13.05;;;11.80;99.90;;;;;;5096488;28;20044;-75
2022/05/08 03:13:27;;;;;;;18.10;13.95;;;11.80;99.90;;;;;;5096130;28;20036;-76
2022/05/08 03:15:55;;;;;;;19.40;12.27;;;11.90;99.90;;;;;;5097120;28;20051;-76
2022/05/08 03:18:23;;;;;;;18.95;12.93;;;11.80;99.90;;;;;;5094621;28;20056;-74
2022/05/08 03:20:52;;;;;;;18.67;12.88;;;11.80;99.90;;;;;;5096620;28;20044;-75
2022/05/08 03:23:20;;;;;;;20.85;12.77;;;11.90;99.90;;;;;;5096338;28;20037;-76
2022/05/08 03:25:51;;;;;;;19.40;13.63;;;11.90;99.90;;;;;;5096989;28;20089;-76
2022/05/08 03:28:18;;;;;;;20.75;13.30;;;12.00;99.90;;;;;;5085729;28;20049;-75
2022/05/08 03:30:46;;;;;;;20.85;13.82;;;12.00;99.90;;;;;;5076021;28;20444;-76
2022/05/08 03:33:15;;;;;;;20.60;13.60;;;12.00;99.90;;;;;;5074680;28;20044;-75
2022/05/08 03:35:43;;;;;;;19.65;13.40;;;12.10;99.90;;;;;;5077303;28;20446;-76
2022/05/08 03:38:11;;;;;;;24.08;13.38;;;12.10;99.90;;;;;;5076788;28;20070;-76
2022/05/08 03:40:39;;;;;;;24.33;14.38;;;12.10;99.90;;;;;;5077672;28;20043;-76
2022/05/08 03:43:06;;;;;;;24.95;13.60;;;12.10;99.90;;;;;;5096926;28;20050;-76
2022/05/08 03:45:34;;;;;;;22.75;12.82;;;12.10;99.90;;;;;;5100752;28;20123;-75
2022/05/08 03:48:01;;;;;;;21.30;12.95;;;12.00;99.90;;;;;;5100022;28;20050;-75
2022/05/08 03:50:29;;;;;;;21.15;14.57;;;12.00;99.90;;;;;;5097789;28;20044;-74
2022/05/08 03:52:57;;;;;;;23.02;14.18;;;12.10;99.90;;;;;;5096999;28;20044;-75
2022/05/08 03:55:26;;;;;;;34.03;16.05;;;12.10;99.90;;;;;;5096742;28;20403;-76
2022/05/08 03:57:54;;;;;;;40.70;17.83;;;12.10;99.90;;;;;;5096846;28;20032;-75
2022/05/08 04:00:21;;;;;;;32.83;15.65;;;12.10;99.90;;;;;;5096908;28;20051;-76
2022/05/08 04:02:49;;;;;;;36.45;17.55;;;12.20;99.90;;;;;;5096344;28;20101;-76
2022/05/08 04:05:16;;;;;;;23.92;15.10;;;12.20;99.90;;;;;;5095768;28;20432;-75
2022/05/08 04:07:44;;;;;;;25.50;14.88;;;12.20;99.90;;;;;;5094690;28;20052;-76
2022/05/08 04:10:12;;;;;;;32.45;16.50;;;12.10;99.90;;;;;;5094240;28;20495;-76
2022/05/08 04:12:43;;;;;;;25.15;15.27;;;12.20;99.90;;;;;;5096514;28;20480;-75
2022/05/08 04:17:55;;;;;;;30.50;15.52;;;12.20;99.90;;;;;;5095992;28;20067;-75
2022/05/08 04:20:23;;;;;;;32.30;16.38;;;12.20;99.90;;;;;;5095207;28;20048;-75
2022/05/08 04:25:36;;;;;;;35.70;16.42;;;12.10;99.90;;;;;;5110941;28;20044;-75
2022/05/08 04:28:06;;;;;;;39.38;17.38;;;12.20;99.90;;;;;;5087283;28;20036;-75
2022/05/08 04:30:34;;;;;;;38.30;18.52;;;12.20;99.90;;;;;;5074160;28;20040;-76
2022/05/08 04:33:07;;;;;;;37.80;17.20;;;12.20;99.90;;;;;;5085274;28;20048;-76
2022/05/08 04:35:35;;;;;;;34.33;17.85;;;12.20;99.90;;;;;;5106351;28;20124;-75
2022/05/08 04:38:02;;;;;;;53.67;17.67;;;12.10;99.90;;;;;;5092760;28;20131;-76
2022/05/08 04:40:30;;;;;;;42.90;18.98;;;12.20;99.90;;;;;;5107839;28;20040;-76
2022/05/08 04:42:57;;;;;;;42.08;18.65;;;12.10;99.90;;;;;;5095912;28;20050;-76
2022/05/08 04:45:26;;;;;;;45.33;20.70;;;12.10;99.90;;;;;;5098627;28;20047;-75
2022/05/08 04:47:53;;;;;;;41.83;18.50;;;12.10;99.90;;;;;;5097853;28;20068;-74
2022/05/08 04:50:21;;;;;;;43.65;18.25;;;12.10;99.90;;;;;;5094959;28;20054;-76
2022/05/08 04:52:49;;;;;;;44.10;17.85;;;12.20;99.90;;;;;;5094419;28;20040;-76
2022/05/08 04:55:17;;;;;;;41.80;19.00;;;12.20;99.90;;;;;;5095313;28;20050;-75
2022/05/08 04:57:44;;;;;;;39.08;17.92;;;12.20;99.90;;;;;;5095829;28;20043;-75
2022/05/08 05:00:13;;;;;;;45.88;18.60;;;12.20;99.90;;;;;;5095175;28;20505;-75
2022/05/08 05:02:44;;;;;;;47.92;19.70;;;12.20;99.90;;;;;;5105852;28;20066;-76
2022/05/08 05:05:11;;;;;;;34.95;17.38;;;12.30;99.90;;;;;;5104432;28;20059;-76
2022/05/08 05:07:40;;;;;;;30.52;16.02;;;12.30;99.90;;;;;;5097465;28;20048;-76
2022/05/08 05:10:10;;;;;;;31.73;17.55;;;12.50;99.90;;;;;;5097003;28;20056;-76
2022/05/08 05:12:38;;;;;;;32.88;16.85;;;12.60;99.90;;;;;;5095503;28;20052;-75
2022/05/08 05:15:06;;;;;;;29.08;16.42;;;12.70;99.90;;;;;;5095074;28;20127;-76
2022/05/08 05:17:34;;;;;;;28.40;15.75;;;12.80;99.90;;;;;;5094564;28;20094;-77
2022/05/08 05:20:04;;;;;;;26.13;14.82;;;12.80;99.90;;;;;;5092419;22;20045;-76
2022/05/08 05:22:31;;;;;;;33.92;15.63;;;12.90;99.90;;;;;;5056071;28;20487;-76
2022/05/08 05:24:59;;;;;;;39.25;14.55;;;12.70;99.90;;;;;;5037353;28;20048;-76
2022/05/08 05:27:29;;;;;;;33.08;16.58;;;12.70;99.90;;;;;;5057337;28;20509;-75
2022/05/08 05:29:58;;;;;;;39.78;19.77;;;12.60;99.90;;;;;;5075158;28;20483;-75
2022/05/08 05:32:27;;;;;;;40.80;18.40;;;12.70;99.90;;;;;;5074679;28;20135;-76
2022/05/08 05:34:54;;;;;;;41.00;17.83;;;12.70;99.90;;;;;;5057220;28;20044;-76
2022/05/08 05:37:23;;;;;;;41.90;18.10;;;12.80;99.90;;;;;;5092742;28;20047;-75
2022/05/08 05:39:51;;;;;;;34.35;16.95;;;12.90;99.90;;;;;;5092337;28;20051;-75
2022/05/08 05:42:18;;;;;;;39.25;16.98;;;12.90;99.90;;;;;;5051164;28;20047;-76
2022/05/08 05:44:46;;;;;;;33.70;16.10;;;12.90;99.90;;;;;;5082886;28;20093;-75
2022/05/08 05:49:59;;;;;;;39.17;19.70;;;13.10;99.90;;;;;;5066304;28;20059;-76
2022/05/08 05:52:28;;;;;;;38.80;16.73;;;13.00;99.90;;;;;;5054849;28;20072;-75
2022/05/08 05:54:56;;;;;;;39.22;18.95;;;13.00;99.90;;;;;;5058028;28;20036;-75
2022/05/08 05:57:23;;;;;;;44.78;20.05;;;13.10;99.90;;;;;;5067958;28;20410;-76
2022/05/08 05:59:51;;;;;;;43.58;20.33;;;13.20;99.90;;;;;;5076893;28;20135;-76
2022/05/08 06:02:18;;;;;;;36.70;18.15;;;13.40;99.90;;;;;;5040106;28;20048;-76
2022/05/08 06:04:46;;;;;;;39.65;19.25;;;13.70;99.90;;;;;;5058518;28;20483;-76
2022/05/08 06:07:13;;;;;;;40.67;18.83;;;13.70;99.90;;;;;;5068712;28;20123;-76
2022/05/08 06:09:42;;;;;;;40.30;19.00;;;13.80;99.90;;;;;;5040217;28;20053;-76
2022/05/08 06:12:10;;;;;;;42.65;20.25;;;13.80;99.90;;;;;;5058592;28;20040;-75
2022/05/08 06:14:38;;;;;;;49.25;21.38;;;13.90;99.90;;;;;;5042132;28;20152;-76
2022/05/08 06:17:06;;;;;;;43.15;22.17;;;14.00;99.90;;;;;;5067907;28;20036;-76
2022/05/08 06:19:34;;;;;;;41.05;20.67;;;14.20;99.90;;;;;;5076494;28;20527;-76
2022/05/08 06:22:02;;;;;;;50.78;23.02;;;14.30;99.90;;;;;;5043303;28;20480;-75
2022/05/08 06:24:30;;;;;;;38.10;19.55;;;14.50;99.90;;;;;;5075724;28;20471;-76
2022/05/08 06:26:59;;;;;;;44.08;20.70;;;14.60;99.90;;;;;;5081234;28;20132;-76
2022/05/08 06:29:26;;;;;;;37.40;19.60;;;14.60;99.90;;;;;;5079739;28;20127;-76
2022/05/08 06:31:54;;;;;;;40.05;20.52;;;14.60;99.90;;;;;;5080169;28;20474;-76
2022/05/08 06:34:21;;;;;;;38.95;20.23;;;14.60;99.90;;;;;;5047773;28;20052;-74
2022/05/08 06:36:49;;;;;;;35.78;20.13;;;14.60;99.90;;;;;;5075328;28;20047;-76
2022/05/08 06:39:16;;;;;;;35.58;21.83;;;14.60;99.90;;;;;;5085003;28;20110;-77
2022/05/08 06:41:44;;;;;;;37.92;21.77;;;14.40;99.90;;;;;;5087313;28;20108;-76
2022/05/08 06:44:14;;;;;;;35.55;20.70;;;14.40;99.90;;;;;;5085127;28;20059;-77
2022/05/08 06:46:42;;;;;;;39.63;23.77;;;14.40;99.90;;;;;;5079016;28;20048;-77
2022/05/08 06:49:09;;;;;;;33.70;21.20;;;14.40;99.90;;;;;;5077334;28;20037;-77
2022/05/08 06:51:36;;;;;;;37.33;20.67;;;14.50;99.90;;;;;;5069090;28;20043;-77
2022/05/08 06:54:04;;;;;;;35.72;20.55;;;14.60;99.90;;;;;;5057841;28;20043;-77
2022/05/08 06:56:35;;;;;;;31.13;20.10;;;14.60;99.90;;;;;;5070385;28;20063;-76
2022/05/08 07:01:50;;;;;;;34.70;20.10;;;14.40;99.90;;;;;;5061408;28;20060;-76
2022/05/08 07:04:18;;;;;;;32.00;20.15;;;14.40;99.90;;;;;;5059776;28;20514;-76
2022/05/08 07:06:45;;;;;;;36.17;20.85;;;14.30;99.90;;;;;;5077763;28;20047;-75
2022/05/08 07:09:14;;;;;;;29.90;21.27;;;14.50;99.90;;;;;;5077547;28;20502;-75
2022/05/08 07:11:44;;;;;;;34.67;22.00;;;14.80;99.90;;;;;;5076879;28;20053;-77
2022/05/08 07:14:13;;;;;;;46.88;27.17;;;15.00;99.90;;;;;;5053337;28;20060;-76
2022/05/08 07:16:40;;;;;;;32.88;22.77;;;15.10;99.90;;;;;;5065162;28;20038;-77
2022/05/08 07:19:09;;;;;;;38.47;24.25;;;15.50;99.90;;;;;;5077891;28;20513;-76
2022/05/08 07:21:37;;;;;;;36.67;23.13;;;16.00;99.90;;;;;;5076856;28;20037;-77
2022/05/08 07:24:05;;;;;;;31.00;20.98;;;16.60;99.90;;;;;;5066131;28;20479;-76
2022/05/08 07:26:33;;;;;;;27.33;17.20;;;17.00;99.90;;;;;;5038725;28;20045;-76
2022/05/08 07:29:00;;;;;;;27.05;19.98;;;17.30;99.90;;;;;;5075653;28;20079;-75
2022/05/08 07:31:28;;;;;;;26.83;19.30;;;17.40;99.90;;;;;;5076086;28;20053;-76
2022/05/08 07:36:44;;;;;;;28.63;18.85;;;17.40;99.90;;;;;;5054659;28;20459;-75
2022/05/08 07:39:12;;;;;;;29.50;20.42;;;17.60;99.90;;;;;;5065985;28;20210;-76
2022/05/08 07:41:39;;;;;;;32.85;22.17;;;17.50;99.90;;;;;;5069327;28;20036;-75
2022/05/08 07:44:07;;;;;;;31.02;21.85;;;17.30;99.90;;;;;;5055995;28;20048;-76
2022/05/08 07:46:34;;;;;;;37.17;26.27;;;17.40;99.90;;;;;;5058681;28;20040;-76
2022/05/08 07:49:02;;;;;;;39.17;27.33;;;17.40;99.90;;;;;;5077012;28;20098;-74
2022/05/08 07:51:30;;;;;;;36.00;24.75;;;17.40;99.90;;;;;;5050542;28;20056;-74
2022/05/08 07:53:59;;;;;;;47.20;27.55;;;17.60;99.90;;;;;;5061682;28;20044;-73
2022/05/08 07:56:28;;;;;;;37.40;26.63;;;17.80;99.90;;;;;;5073169;28;20422;-74
2022/05/08 07:58:56;;;;;;;42.63;30.58;;;18.10;99.90;;;;;;5074618;28;20068;-74
2022/05/08 08:01:23;;;;;;;38.13;25.95;;;18.30;99.90;;;;;;5088866;28;20108;-74
2022/05/08 08:03:51;;;;;;;37.65;27.23;;;18.40;99.90;;;;;;5062878;28;20064;-75
2022/05/08 08:06:18;;;;;;;41.42;28.00;;;18.60;99.90;;;;;;5062548;28;20051;-74
2022/05/08 08:08:46;;;;;;;39.00;26.88;;;18.80;99.90;;;;;;5079169;28;20040;-75
2022/05/08 08:11:15;;;;;;;32.63;24.38;;;19.50;99.90;;;;;;5065724;28;20508;-74
2022/05/08 08:13:42;;;;;;;35.00;24.67;;;19.90;99.90;;;;;;5074415;28;20058;-74
2022/05/08 08:16:12;;;;;;;37.47;26.88;;;20.00;99.90;;;;;;5079734;28;20040;-74
2022/05/08 08:18:43;;;;;;;34.63;24.20;;;19.70;99.90;;;;;;5089220;28;20052;-74
2022/05/08 08:21:12;;;;;;;35.63;26.05;;;19.30;99.90;;;;;;5085337;28;20036;-74
2022/05/08 08:23:41;;;;;;;40.25;28.40;;;19.20;99.90;;;;;;5078559;28;20446;-74
2022/05/08 08:26:09;;;;;;;39.30;29.13;;;19.30;99.90;;;;;;5057064;28;20442;-74
2022/05/08 08:28:38;;;;;;;42.53;29.08;;;19.20;99.90;;;;;;5065341;28;20111;-75
2022/05/08 08:31:07;;;;;;;42.78;29.95;;;19.20;99.90;;;;;;5056298;28;20403;-75
2022/05/08 08:33:34;;;;;;;44.25;30.95;;;19.40;99.90;;;;;;5045038;28;20557;-73
2022/05/08 08:36:02;;;;;;;44.78;30.88;;;19.60;99.90;;;;;;5064912;28;20123;-73
2022/05/08 08:38:30;;;;;;;46.83;31.65;;;19.70;99.90;;;;;;5074592;28;20067;-73
2022/05/08 08:41:02;;;;;;;39.35;28.63;;;20.00;99.90;;;;;;5041212;28;20052;-73
2022/05/08 08:47:42;;;;;;;36.67;26.25;;;19.70;99.90;;;;;;5072634;28;20045;-74
2022/05/08 08:49:19;;;;;;;33.65;24.77;;;19.80;99.90;;;;;;5044609;28;20508;-74
2022/05/08 08:51:48;;;;;;;34.85;24.95;;;19.90;99.90;;;;;;5065435;28;20052;-73
2022/05/08 08:54:16;;;;;;;38.33;25.52;;;19.80;99.90;;;;;;5056556;28;20045;-73
2022/05/08 08:56:43;;;;;;;37.03;28.27;;;19.90;99.90;;;;;;5075358;28;20040;-75
2022/05/08 08:59:11;;;;;;;34.80;25.85;;;20.00;99.90;;;;;;5075366;28;20045;-74
2022/05/08 09:01:42;;;;;;;33.10;24.23;;;20.00;99.90;;;;;;5074336;28;20067;-74
2022/05/08 09:04:10;;;;;;;42.00;27.15;;;19.70;99.90;;;;;;5073151;28;20041;-74
2022/05/08 09:06:41;;;;;;;41.42;27.77;;;19.30;99.90;;;;;;5074137;28;20040;-74
2022/05/08 09:09:23;;;;;;;40.10;29.85;;;19.20;99.90;;;;;;5074147;28;20094;-74
2022/05/08 09:11:51;;;;;;;38.10;26.63;;;19.30;99.90;;;;;;5069083;28;20043;-74
2022/05/08 09:14:31;;;;;;;36.65;25.95;;;19.40;99.90;;;;;;5062985;28;20037;-74
2022/05/08 09:17:01;;;;;;;34.28;23.63;;;19.40;99.90;;;;;;5064628;28;20091;-74
2022/05/08 09:19:34;;;;;;;32.20;22.45;;;19.70;99.90;;;;;;5061034;28;20090;-75
2022/05/08 09:22:03;;;;;;;31.98;22.58;;;19.70;99.90;;;;;;5074184;28;20040;-73
2022/05/08 09:24:30;;;;;;;30.80;21.20;;;19.90;99.90;;;;;;5058616;28;20033;-73
2022/05/08 09:27:20;;;;;;;31.92;21.65;;;19.90;99.90;;;;;;5054418;28;20115;-73
2022/05/08 09:29:48;;;;;;;30.33;21.70;;;19.90;99.90;;;;;;5053760;28;20045;-74
2022/05/08 09:32:35;;;;;;;33.78;21.70;;;20.00;99.90;;;;;;5054017;28;20048;-72
2022/05/08 09:35:04;;;;;;;33.00;22.88;;;20.00;1.00;;;;;;5063402;28;20028;-73
2022/05/08 09:37:31;;;;;;;31.60;20.23;;;19.90;1.00;;;;;;5052330;28;20496;-73
2022/05/08 09:40:17;;;;;;;27.08;19.13;;;19.70;1.00;;;;;;5054196;28;20052;-74
2022/05/08 09:42:47;;;;;;;31.33;18.65;;;19.80;99.90;;;;;;5075860;28;20134;-74
2022/05/08 09:45:15;;;;;;;28.02;18.35;;;20.10;1.00;;;;;;5079426;28;20490;-74
2022/05/08 09:47:48;;;;;;;27.40;18.55;;;20.30;99.90;;;;;;5063122;28;20045;-74
2022/05/08 09:50:20;;;;;;;30.42;18.98;;;20.70;1.00;;;;;;5061719;28;20450;-75
2022/05/08 09:52:48;;;;;;;24.40;17.17;;;20.90;1.00;;;;;;5071286;28;20047;-75
2022/05/08 09:55:21;;;;;;;29.08;17.65;;;20.90;1.00;;;;;;5063195;28;20040;-74
2022/05/08 09:57:48;;;;;;;27.60;18.13;;;20.80;1.00;;;;;;5074878;28;20053;-75
2022/05/08 10:00:16;;;;;;;21.73;15.82;;;21.00;1.00;;;;;;5073401;28;20049;-75
2022/05/08 10:03:43;;;;;;;23.30;16.13;;;21.20;1.00;;;;;;5057499;28;20236;-79
2022/05/08 10:06:24;;;;;;;28.30;18.60;;;21.10;99.90;;;;;;5041902;28;20049;-80
2022/05/08 10:13:53;;;;;;;26.75;18.08;;;21.40;99.90;;;;;;5065524;28;20544;-80
2022/05/08 10:14:49;;;;;;;30.55;19.92;;;21.70;99.90;;;;;;5047062;28;20060;-79
2022/05/08 10:20:15;;;;;;;27.75;17.83;;;21.90;99.90;;;;;;5062893;28;20062;-79
2022/05/08 10:22:50;;;;;;;25.83;18.42;;;22.00;45.90;;;;;;5068852;28;20053;-81
2022/05/08 10:25:21;;;;;;;29.30;17.50;;;22.30;21.00;;;;;;5066416;28;20037;-80
2022/05/08 10:28:11;;;;;;;25.63;16.10;;;22.40;1.00;;;;;;5076038;28;20044;-81
2022/05/08 10:30:40;;;;;;;22.98;16.55;;;22.50;1.00;;;;;;5087660;28;20048;-80
2022/05/08 10:33:07;;;;;;;25.17;17.55;;;22.70;1.00;;;;;;5087493;28;20054;-81
2022/05/08 10:35:40;;;;;;;26.33;17.73;;;22.70;1.00;;;;;;5070206;28;20114;-79
2022/05/08 10:38:23;;;;;;;24.67;17.02;;;22.80;1.00;;;;;;5068696;28;20057;-80
2022/05/08 10:40:59;;;;;;;23.98;16.60;;;23.10;1.00;;;;;;5081177;28;20036;-80
2022/05/08 10:43:30;;;;;;;28.45;16.08;;;23.30;1.00;;;;;;5067059;28;20053;-81
2022/05/08 10:46:26;;;;;;;21.05;14.70;;;23.60;1.00;;;;;;5068761;28;20044;-80
2022/05/08 10:52:34;;;;;;;20.58;13.50;;;23.80;1.00;;;;;;5079199;28;20446;-81
2022/05/08 10:58:16;;;;;;;29.08;15.85;;;23.30;1.00;;;;;;5053041;28;20458;-81
2022/05/08 11:00:45;;;;;;;26.48;14.18;;;23.70;1.00;;;;;;5045095;28;20041;-81
2022/05/08 11:03:20;;;;;;;21.98;14.35;;;24.10;1.00;;;;;;5047496;28;20045;-80
2022/05/08 11:05:48;;;;;;;17.90;12.32;;;24.10;1.00;;;;;;5068630;28;20106;-76
2022/05/08 11:08:31;;;;;;;19.17;12.52;;;23.90;1.00;;;;;;5075938;28;20435;-75
2022/05/08 11:11:03;;;;;;;18.55;13.85;;;23.90;1.00;;;;;;5076230;28;20119;-75
2022/05/08 11:13:46;;;;;;;21.58;14.88;;;24.30;1.00;;;;;;5077239;28;20040;-75
2022/05/08 11:16:16;;;;;;;28.42;20.88;;;24.50;1.00;;;;;;5074530;28;20033;-75
2022/05/08 11:18:43;;;;;;;25.92;17.35;;;24.40;1.00;;;;;;5073600;22;20134;-74
2022/05/08 11:21:11;;;;;;;29.05;17.38;;;24.40;1.00;;;;;;5058897;28;20045;-75
2022/05/08 11:23:45;;;;;;;29.25;17.83;;;24.30;1.00;;;;;;5075148;28;20039;-75
2022/05/08 11:26:15;;;;;;;18.17;11.90;;;24.00;1.00;;;;;;5053928;28;20048;-77
2022/05/08 11:28:50;;;;;;;11.93;7.57;;;23.70;1.00;;;;;;5062586;28;20118;-74
2022/05/08 11:31:19;;;;;;;18.02;8.10;;;23.70;1.00;;;;;;5073231;28;20044;-75
2022/05/08 11:36:34;;;;;;;17.95;9.68;;;23.60;1.00;;;;;;5056884;28;20044;-74
2022/05/08 11:39:05;;;;;;;14.50;9.35;;;23.90;1.00;;;;;;5075214;28;20047;-74
2022/05/08 11:41:36;;;;;;;11.63;8.32;;;24.10;1.00;;;;;;5075604;28;20048;-75
2022/05/08 11:44:16;;;;;;;16.80;7.00;;;24.10;1.00;;;;;;5075249;28;20075;-75
2022/05/08 11:46:45;;;;;;;10.95;6.00;;;23.90;1.00;;;;;;5057314;28;20049;-76
2022/05/08 11:49:16;;;;;;;13.35;5.82;;;23.80;1.00;;;;;;5075202;28;20115;-75
2022/05/08 11:51:45;;;;;;;14.95;5.72;;;23.60;1.00;;;;;;5075420;28;20576;-75
2022/05/08 11:54:22;;;;;;;10.57;6.22;;;23.60;1.00;;;;;;5075028;28;20045;-75
2022/05/08 11:56:51;;;;;;;18.90;12.77;;;23.90;1.00;;;;;;5074953;28;20049;-75
2022/05/08 11:59:21;;;;;;;12.43;7.47;;;24.10;1.00;;;;;;5074665;28;20441;-75
2022/05/08 12:01:50;;;;;;;10.43;6.65;;;24.30;1.00;;;;;;5074706;28;20045;-75
2022/05/08 12:04:28;;;;;;;11.63;6.78;;;24.40;1.00;;;;;;5074661;28;20494;-75
2022/05/08 12:07:00;;;;;;;13.95;7.97;;;24.50;1.00;;;;;;5074844;28;20036;-75
2022/05/08 12:09:30;;;;;;;16.85;8.73;;;24.90;1.00;;;;;;5074824;28;20154;-75
2022/05/08 12:12:18;;;;;;;14.52;9.13;;;25.10;1.00;;;;;;5075013;28;20119;-75
2022/05/08 12:14:49;;;;;;;15.77;6.95;;;25.40;1.00;;;;;;5074832;28;20075;-77
2022/05/08 12:17:16;;;;;;;9.77;5.90;;;25.40;1.00;;;;;;5074567;28;20044;-76
2022/05/08 12:19:54;;;;;;;11.98;7.57;;;24.90;1.00;;;;;;5074432;28;20053;-76
2022/05/08 12:22:24;;;;;;;9.50;6.20;;;24.90;1.00;;;;;;5056576;28;20049;-76
2022/05/08 12:24:53;;;;;;;9.75;6.25;;;24.50;1.00;;;;;;5056297;28;20052;-75
2022/05/08 12:27:21;;;;;;;10.75;6.30;;;24.00;1.00;;;;;;5072094;28;20054;-75
2022/05/08 12:29:50;;;;;;;11.38;6.53;;;23.40;1.00;;;;;;5036473;28;20486;-75
2022/05/08 12:32:19;;;;;;;13.23;6.45;;;23.50;1.00;;;;;;5054232;28;20488;-76
2022/05/08 12:34:47;;;;;;;11.30;6.75;;;23.60;1.00;;;;;;5053935;28;20419;-76
2022/05/08 12:37:16;;;;;;;8.60;6.53;;;23.60;1.00;;;;;;5054395;28;20047;-76
2022/05/08 12:39:45;;;;;;;11.45;6.00;;;23.80;1.00;;;;;;5054086;28;20045;-76
2022/05/08 12:42:14;;;;;;;11.90;6.25;;;23.70;1.00;;;;;;5053987;28;20504;-76
2022/05/08 12:44:43;;;;;;;10.70;6.00;;;23.80;1.00;;;;;;5054549;28;20060;-75
2022/05/08 12:47:12;;;;;;;9.77;6.57;;;23.90;1.00;;;;;;5054826;28;20044;-76
2022/05/08 12:49:41;;;;;;;8.75;5.57;;;23.90;1.00;;;;;;5054785;28;20045;-75
2022/05/08 12:52:10;;;;;;;11.63;5.97;;;23.80;1.00;;;;;;5054876;28;20049;-75
2022/05/08 12:54:38;;;;;;;10.45;5.70;;;23.80;1.00;;;;;;5053882;28;20071;-75
2022/05/08 12:57:08;;;;;;;9.95;5.53;;;23.90;1.00;;;;;;5036089;28;20512;-75
2022/05/08 12:59:43;;;;;;;13.63;5.85;;;23.60;1.00;;;;;;5053584;28;20067;-75
2022/05/08 13:02:11;;;;;;;9.77;6.15;;;23.50;1.00;;;;;;5053797;28;20502;-75
2022/05/08 13:04:38;;;;;;;11.82;6.30;;;23.40;1.00;;;;;;5053408;28;20048;-75
2022/05/08 13:07:06;;;;;;;10.75;6.20;;;23.50;1.00;;;;;;5053588;28;20048;-74
2022/05/08 13:09:33;;;;;;;7.93;5.45;;;23.40;1.00;;;;;;5053296;28;20064;-74
2022/05/08 13:12:03;;;;;;;10.13;5.70;;;23.40;1.00;;;;;;5053646;28;20041;-75
2022/05/08 13:14:30;;;;;;;11.50;6.15;;;23.30;1.00;;;;;;5053751;28;20114;-75
2022/05/08 13:17:04;;;;;;;10.10;6.63;;;23.00;1.00;;;;;;5063434;28;20040;-75
2022/05/08 13:19:33;;;;;;;11.93;5.60;;;23.00;1.00;;;;;;5073988;28;20056;-75
2022/05/08 13:22:01;;;;;;;9.43;5.90;;;22.80;1.00;;;;;;5073816;28;20048;-75
2022/05/08 13:24:29;;;;;;;9.02;5.70;;;22.80;1.00;;;;;;5073617;28;20438;-75